Wilmington, NC (28401)

10:13 PM EDT on July 23, 2016 (GMT -0400)
Downey Branch Office Park | | Change Station
Active Advisory: Heat Advisory

Elev 30 ft 34.22 °N, 77.90 °W | Updated 8 minutes ago

Clear
Clear
81.3 °F
Feels Like 87 °F
N
4.2
Wind Variable Wind from NNW

Today
High -- | Low -- °F
--% Chance of Precip.
Yesterday
High -- | Low -- °F
Precip. -- in
Pressure 30.00 in
Visibility 10.0 miles
Clouds Clear
Heat Index 87 °F
Dew Point 74 °F
Humidity 79%
Rainfall 0.00 in
Snow Depth Not available.
6:16 AM 8:19 PM
Waning Gibbous, 80% visible
METAR KILM 240153Z AUTO 21005KT 10SM CLR 27/24 A3000 RMK AO2 SLP159 T02720239 PWINO
Pressure 30.00 in
Visibility 10.0 miles
Clouds Clear
Heat Index 87 °F
Dew Point 74 °F
Humidity 79%
Rainfall 0.00 in
Snow Depth Not available.
6:16 AM 8:19 PM
Waning Gibbous, 80% visible
METAR KILM 240153Z AUTO 21005KT 10SM CLR 27/24 A3000 RMK AO2 SLP159 T02720239 PWINO

10-Day Weather Forecast

Almanac

Astronomy

Jul. 23, 2016 Rise Set
Actual Time
Civil Twilight
Nautical Twilight
Astronomical Twilight
Moon
Length of Visible Light
Length of Day
Tomorrow will be .
, % of the Moon is Illuminated

Today's Extremes

State Highs State Lows

Community

WunderPhotos

Upload Photos

1,927,000 photos uploaded!

WunderBlog® & News

Nearby

Air Quality

  Air Quality AQ Index Pollutant
Not available.

Snow Depth

Station Depth Elevation

Earthquake Activity

City Distance Mag. Time & Date
Minimum magnitude displayed is 2.5.

Coastal Water Temperatures

Place Temperature

Stations

Nearby Weather Stations

Station Location Temp. Windchill Dew Point Humidity Wind Precip. Elev Updated Type
                   

Watches & Warnings

Heat Advisory
Issued: 3:31 PM EDT Jul. 23, 2016 – National Weather Service

... Heat advisory in effect from 11 am to 8 PM EDT Sunday...

The National Weather Service in Wilmington has issued a heat
advisory... which is in effect from 11 am to 8 PM EDT Sunday.

* Heat index values... up to 106.

* Temperatures... in the low to mid 90s.

* Timing... the hottest heat index values will occur during the
late afternoon and early evening.

* Impacts... the combination of hot temperatures and high humidity
will create a situation in which heat illnesses are possible.

Precautionary/preparedness actions...

To reduce the risk of heat illness during outdoor work the
occupational safety and health administration recommends
scheduling frequent rest breaks in shaded or air conditioned
environments.

Never leave children or pets unattended in a closed up vehicle
during the day. In just 15 minutes... temperatures inside the
vehicle could easily surpass 140 degrees. Outdoor livestock and
pets will also need plenty of shade... a well ventilated
environment... and plenty of accessible drinking water.



17